Time;durP1;ratioP1;P1;durP2;ratioP2;P2;SDS_P1;SDS_P2;PMS_P1;PMS_P2;Temp;Humidity;BMP_temperature;BMP_pressure;BME280_temperature;BME280_humidity;BME280_pressure;Samples;Min_cycle;Max_cycle;Signal;HPM_P1;HPM_P2
2022/11/10 00:02:18;;;;;;;22.00;3.63;;;10.20;99.90;;;;;;5053836;28;20134;-63
2022/11/10 00:05:03;;;;;;;17.63;3.57;;;10.20;99.90;;;;;;5051392;28;20099;-63
2022/11/10 00:07:48;;;;;;;18.37;3.70;;;10.20;99.90;;;;;;5047149;28;20048;-62
2022/11/10 00:10:55;;;;;;;22.77;6.93;;;10.20;99.90;;;;;;5035812;28;20376;-61
2022/11/10 00:16:59;;;;;;;21.60;5.95;;;10.20;99.90;;;;;;5035771;28;20053;-63
2022/11/10 00:16:59;;;;;;;17.75;4.35;;;10.20;99.90;;;;;;5035386;28;20469;-61
2022/11/10 00:19:44;;;;;;;22.08;5.10;;;10.20;99.90;;;;;;5035529;28;20052;-63
2022/11/10 00:22:29;;;;;;;21.23;4.83;;;10.20;99.90;;;;;;5035964;28;20064;-62
2022/11/10 00:25:15;;;;;;;18.40;4.30;;;10.20;99.90;;;;;;5042442;28;20053;-63
2022/11/10 00:28:00;;;;;;;18.42;4.38;;;10.20;99.90;;;;;;5037684;28;20392;-61
2022/11/10 00:30:45;;;;;;;15.20;4.00;;;10.20;99.90;;;;;;5055482;28;20047;-62
2022/11/10 00:33:31;;;;;;;20.77;4.10;;;10.20;99.90;;;;;;5055205;28;20740;-62
2022/11/10 00:36:16;;;;;;;16.17;3.58;;;10.20;99.90;;;;;;5054884;28;20221;-61
2022/11/10 00:39:01;;;;;;;24.53;4.80;;;10.30;99.90;;;;;;5055334;28;20383;-63
2022/11/10 00:41:46;;;;;;;21.50;3.60;;;10.20;99.90;;;;;;5053386;28;20090;-63
2022/11/10 00:44:31;;;;;;;17.73;4.20;;;10.30;99.90;;;;;;5039683;28;20481;-64
2022/11/10 00:47:16;;;;;;;22.17;4.07;;;10.30;99.90;;;;;;5046692;28;20075;-63
2022/11/10 00:50:01;;;;;;;13.40;2.90;;;10.30;99.90;;;;;;5051476;28;20059;-62
2022/11/10 00:52:46;;;;;;;22.00;3.70;;;10.30;99.90;;;;;;5046496;28;20060;-63
2022/11/10 00:55:32;;;;;;;22.20;3.92;;;10.30;99.90;;;;;;5045957;28;20270;-61
2022/11/10 00:58:17;;;;;;;22.38;3.40;;;10.30;99.90;;;;;;5047567;28;20056;-62
2022/11/10 01:01:02;;;;;;;19.15;3.58;;;10.30;99.90;;;;;;5052237;28;20519;-62
2022/11/10 01:03:48;;;;;;;22.77;4.30;;;10.40;99.90;;;;;;5035000;28;20055;-63
2022/11/10 01:06:33;;;;;;;17.10;4.18;;;10.40;99.90;;;;;;5043944;28;20043;-62
2022/11/10 01:09:19;;;;;;;24.98;4.20;;;10.40;99.90;;;;;;5054317;28;20502;-64
2022/11/10 01:12:04;;;;;;;20.63;3.97;;;10.40;99.90;;;;;;5058433;28;20044;-64
2022/11/10 01:14:49;;;;;;;23.08;3.10;;;10.40;99.90;;;;;;5038082;28;20052;-63
2022/11/10 01:17:34;;;;;;;20.55;4.03;;;10.40;99.90;;;;;;5051849;28;20052;-61
2022/11/10 01:20:19;;;;;;;22.20;3.83;;;10.40;99.90;;;;;;5053576;28;20067;-63
2022/11/10 01:23:04;;;;;;;27.00;3.95;;;10.40;99.90;;;;;;5051796;28;20511;-64
2022/11/10 01:25:49;;;;;;;20.73;3.50;;;10.40;99.90;;;;;;5035526;28;20048;-63
2022/11/10 01:28:34;;;;;;;16.73;3.00;;;10.40;99.90;;;;;;5050019;28;20107;-63
2022/11/10 01:31:19;;;;;;;21.17;3.43;;;10.50;99.90;;;;;;5034030;28;20056;-62
2022/11/10 01:34:05;;;;;;;20.10;3.90;;;10.50;99.90;;;;;;5033606;28;20409;-63
2022/11/10 01:36:50;;;;;;;21.92;3.70;;;10.40;99.90;;;;;;5052828;28;20289;-62
2022/11/10 01:39:35;;;;;;;19.67;3.97;;;10.40;99.90;;;;;;5045503;28;20129;-62
2022/11/10 01:42:20;;;;;;;19.65;5.10;;;10.50;99.90;;;;;;5051501;28;20072;-62
2022/11/10 01:45:05;;;;;;;24.42;4.00;;;10.50;99.90;;;;;;5051584;28;20066;-63
2022/11/10 01:47:50;;;;;;;22.33;3.55;;;10.50;99.90;;;;;;5040160;28;20051;-62
2022/11/10 01:50:35;;;;;;;23.13;3.83;;;10.50;99.90;;;;;;5048996;28;20526;-60
2022/11/10 01:53:20;;;;;;;19.55;3.92;;;10.50;99.90;;;;;;5040905;28;20134;-63
2022/11/10 01:56:06;;;;;;;23.60;3.35;;;10.50;99.90;;;;;;5051688;28;20064;-61
2022/11/10 01:58:51;;;;;;;15.50;3.13;;;10.50;99.90;;;;;;5034311;28;20409;-62
2022/11/10 02:01:36;;;;;;;21.58;2.95;;;10.50;99.90;;;;;;5048298;28;20507;-62
2022/11/10 02:04:22;;;;;;;20.50;3.10;;;10.50;99.90;;;;;;5053869;28;20067;-64
2022/11/10 02:07:06;;;;;;;22.20;4.10;;;10.50;99.90;;;;;;5049097;28;20052;-62
2022/11/10 02:09:52;;;;;;;20.33;3.25;;;10.50;99.90;;;;;;5049713;28;20076;-62
2022/11/10 02:12:37;;;;;;;19.75;3.22;;;10.50;99.90;;;;;;5041346;28;20056;-61
2022/11/10 02:15:22;;;;;;;38.03;4.10;;;10.50;99.90;;;;;;5051627;28;20159;-61
2022/11/10 02:18:08;;;;;;;15.80;2.78;;;10.50;99.90;;;;;;5052400;28;20068;-62
2022/11/10 02:20:53;;;;;;;14.97;2.80;;;10.50;99.90;;;;;;5046085;28;20439;-61
2022/11/10 02:23:38;;;;;;;24.52;3.83;;;10.50;99.90;;;;;;5032013;28;20060;-61
2022/11/10 02:26:24;;;;;;;15.30;2.65;;;10.50;99.90;;;;;;5050189;28;20043;-64
2022/11/10 02:29:09;;;;;;;18.27;3.13;;;10.50;99.90;;;;;;5053327;28;20453;-64
2022/11/10 02:31:54;;;;;;;24.98;3.20;;;10.50;99.90;;;;;;5056912;28;20048;-62
2022/11/10 02:34:39;;;;;;;18.65;2.95;;;10.50;99.90;;;;;;5054248;28;20048;-62
2022/11/10 02:37:24;;;;;;;21.00;3.37;;;10.50;99.90;;;;;;5056707;28;20064;-63
2022/11/10 02:40:09;;;;;;;14.87;2.40;;;10.50;99.90;;;;;;5053443;28;20068;-62
2022/11/10 02:42:54;;;;;;;16.63;2.50;;;10.50;99.90;;;;;;5041592;28;20384;-63
2022/11/10 02:45:42;;;;;;;14.53;2.50;;;10.50;99.90;;;;;;5056372;28;20060;-62
2022/11/10 02:48:28;;;;;;;19.38;2.67;;;10.50;99.90;;;;;;5056216;28;20063;-62
2022/11/10 02:51:13;;;;;;;24.03;2.70;;;10.50;99.90;;;;;;5056364;28;20047;-62
2022/11/10 02:53:58;;;;;;;22.40;4.17;;;10.50;99.90;;;;;;5056398;28;20159;-63
2022/11/10 02:56:43;;;;;;;15.53;2.20;;;10.50;99.90;;;;;;5055644;28;20388;-63
2022/11/10 02:59:28;;;;;;;22.15;3.13;;;10.50;99.90;;;;;;5056594;28;20269;-63
2022/11/10 03:02:14;;;;;;;23.70;4.30;;;10.50;99.90;;;;;;5054227;28;20470;-63
2022/11/10 03:04:59;;;;;;;14.20;2.05;;;10.50;99.90;;;;;;5049283;28;20516;-60
2022/11/10 03:07:44;;;;;;;22.50;3.10;;;10.50;99.90;;;;;;5053268;28;20048;-62
2022/11/10 03:10:29;;;;;;;16.17;2.90;;;10.50;99.90;;;;;;5040743;28;20126;-62
2022/11/10 03:13:14;;;;;;;18.52;2.45;;;10.50;99.90;;;;;;5056091;28;20614;-63
2022/11/10 03:16:00;;;;;;;15.35;3.00;;;10.50;99.90;;;;;;5050737;28;20087;-61
2022/11/10 03:18:45;;;;;;;21.88;2.70;;;10.50;99.90;;;;;;5054783;28;20047;-63
2022/11/10 03:21:30;;;;;;;16.65;2.97;;;10.50;99.90;;;;;;5055732;28;20129;-60
2022/11/10 03:24:15;;;;;;;17.13;2.72;;;10.50;99.90;;;;;;5055764;28;20051;-62
2022/11/10 03:27:00;;;;;;;14.13;2.42;;;10.50;99.90;;;;;;5044938;28;20496;-61
2022/11/10 03:29:45;;;;;;;22.02;2.78;;;10.50;99.90;;;;;;5049809;28;20056;-63
2022/11/10 03:32:30;;;;;;;16.23;2.77;;;10.40;99.90;;;;;;5053347;28;20051;-61
2022/11/10 03:35:15;;;;;;;19.57;2.70;;;10.40;99.90;;;;;;5056425;28;20052;-62
2022/11/10 03:38:01;;;;;;;15.98;2.42;;;10.40;99.90;;;;;;5041869;28;20604;-62
2022/11/10 03:40:46;;;;;;;12.23;2.28;;;10.40;99.90;;;;;;5041288;28;20056;-60
2022/11/10 03:43:51;;;;;;;16.52;2.53;;;10.40;99.90;;;;;;5047669;28;20056;-60
2022/11/10 03:46:36;;;;;;;13.43;2.40;;;10.40;99.90;;;;;;5035988;28;20180;-62
2022/11/10 03:49:27;;;;;;;14.05;2.45;;;10.40;99.90;;;;;;5042611;28;20176;-61
2022/11/10 03:52:12;;;;;;;17.02;2.88;;;10.40;99.90;;;;;;5035885;28;20051;-60
2022/11/10 03:54:57;;;;;;;19.20;2.83;;;10.40;99.90;;;;;;5035756;28;20044;-63
2022/11/10 03:57:47;;;;;;;19.80;2.53;;;10.40;99.90;;;;;;5051385;28;20144;-63
2022/11/10 04:00:32;;;;;;;16.17;2.42;;;10.40;99.90;;;;;;5052802;28;20068;-62
2022/11/10 04:03:18;;;;;;;22.42;2.45;;;10.40;99.90;;;;;;5041983;28;20060;-60
2022/11/10 04:09:07;;;;;;;17.38;2.55;;;10.40;99.90;;;;;;5038437;28;20065;-62
2022/11/10 04:21:04;;;;;;;21.63;2.95;;;10.40;99.90;;;;;;5055563;28;20064;-60
2022/11/10 04:23:49;;;;;;;20.00;2.63;;;10.50;99.90;;;;;;5036928;28;20059;-62
2022/11/10 04:26:37;;;;;;;14.80;2.40;;;10.40;99.90;;;;;;5052018;28;20048;-60
2022/11/10 04:29:23;;;;;;;15.85;2.53;;;10.40;99.90;;;;;;5046513;28;20335;-63
2022/11/10 04:32:08;;;;;;;10.93;2.40;;;10.50;99.90;;;;;;5053061;28;20434;-61
2022/11/10 04:34:53;;;;;;;16.23;2.20;;;10.50;99.90;;;;;;5040546;28;20052;-62
2022/11/10 04:37:38;;;;;;;15.32;2.15;;;10.50;99.90;;;;;;5039117;28;20126;-62
2022/11/10 04:40:23;;;;;;;19.05;2.60;;;10.50;99.90;;;;;;5047694;28;20154;-62
2022/11/10 04:43:08;;;;;;;20.70;2.70;;;10.50;99.90;;;;;;5052203;28;20095;-60
2022/11/10 04:45:53;;;;;;;14.55;2.88;;;10.50;99.90;;;;;;5054040;28;20296;-61
2022/11/10 04:48:38;;;;;;;16.00;2.87;;;10.50;99.90;;;;;;5053245;28;20124;-61
2022/11/10 04:51:23;;;;;;;19.30;2.97;;;10.50;99.90;;;;;;5052728;28;20163;-60
2022/11/10 04:54:09;;;;;;;12.45;2.20;;;10.50;99.90;;;;;;5052543;28;20051;-61
2022/11/10 04:56:54;;;;;;;13.00;2.15;;;10.50;99.90;;;;;;5053003;28;20048;-60
2022/11/10 04:59:40;;;;;;;16.83;3.08;;;10.60;99.90;;;;;;5054046;28;20056;-61
2022/11/10 05:02:25;;;;;;;11.23;2.30;;;10.60;99.90;;;;;;5048039;28;20502;-60
2022/11/10 05:05:10;;;;;;;21.17;2.88;;;10.60;99.90;;;;;;5051325;28;20052;-59
2022/11/10 05:07:56;;;;;;;20.65;2.65;;;10.60;99.90;;;;;;5046950;28;20196;-62
2022/11/10 05:10:41;;;;;;;16.90;2.70;;;10.60;99.90;;;;;;5042021;28;20056;-63
2022/11/10 05:13:26;;;;;;;14.68;2.22;;;10.60;99.90;;;;;;5053797;28;20629;-60
2022/11/10 05:16:11;;;;;;;16.33;2.43;;;10.60;99.90;;;;;;5038275;28;20453;-61
2022/11/10 05:18:57;;;;;;;12.80;2.25;;;10.60;99.90;;;;;;5046245;28;20103;-61
2022/11/10 05:21:42;;;;;;;15.27;2.55;;;10.60;99.90;;;;;;5052030;28;20055;-62
2022/11/10 05:24:27;;;;;;;14.70;2.25;;;10.60;99.90;;;;;;5034350;28;20056;-62
2022/11/10 05:27:12;;;;;;;17.77;2.67;;;10.60;99.90;;;;;;5044746;28;20167;-61
2022/11/10 05:29:57;;;;;;;13.93;2.60;;;10.70;99.90;;;;;;5036787;28;20052;-62
2022/11/10 05:32:42;;;;;;;15.20;2.50;;;10.70;99.90;;;;;;5040978;28;20134;-62
2022/11/10 05:35:27;;;;;;;19.17;2.38;;;10.70;99.90;;;;;;5039040;28;20776;-62
2022/11/10 05:38:12;;;;;;;16.13;2.73;;;10.70;99.90;;;;;;5053878;28;20114;-61
2022/11/10 05:40:58;;;;;;;18.30;2.75;;;10.70;99.90;;;;;;5045767;28;20125;-62
2022/11/10 05:43:43;;;;;;;14.10;2.50;;;10.60;99.90;;;;;;5049132;28;20056;-62
2022/11/10 05:46:30;;;;;;;16.60;2.10;;;10.70;99.90;;;;;;5041731;28;20055;-63
2022/11/10 05:49:15;;;;;;;14.20;2.05;;;10.60;99.90;;;;;;5052556;28;20123;-62
2022/11/10 05:52:01;;;;;;;21.05;2.63;;;10.60;99.90;;;;;;5051821;28;20044;-63
2022/11/10 05:54:46;;;;;;;19.03;2.87;;;10.60;99.90;;;;;;5038384;28;20122;-62
2022/11/10 05:57:31;;;;;;;19.20;3.53;;;10.60;99.90;;;;;;5037034;28;20506;-60
2022/11/10 06:00:16;;;;;;;19.05;2.75;;;10.70;99.90;;;;;;5040445;28;20063;-63
2022/11/10 06:03:01;;;;;;;13.00;2.03;;;10.70;99.90;;;;;;5046483;28;20052;-60
2022/11/10 06:05:47;;;;;;;21.52;2.67;;;10.70;99.90;;;;;;5051958;28;20052;-60
2022/11/10 06:08:33;;;;;;;15.57;2.70;;;10.60;99.90;;;;;;5048925;28;20114;-60
2022/11/10 06:11:19;;;;;;;18.33;2.58;;;10.70;99.90;;;;;;5051633;28;20443;-62
2022/11/10 06:14:04;;;;;;;15.23;2.35;;;10.70;99.90;;;;;;5048598;28;20075;-63
2022/11/10 06:16:49;;;;;;;21.63;2.93;;;10.70;99.90;;;;;;5050043;28;20510;-62
2022/11/10 06:19:34;;;;;;;20.87;3.40;;;10.70;99.90;;;;;;5052823;28;20052;-60
2022/11/10 06:22:20;;;;;;;16.23;2.42;;;10.70;99.90;;;;;;5051155;28;20557;-62
2022/11/10 06:25:05;;;;;;;16.27;2.33;;;10.80;99.90;;;;;;5034960;28;20127;-62
2022/11/10 06:27:50;;;;;;;15.32;2.65;;;10.80;99.90;;;;;;5040636;28;20052;-62
2022/11/10 06:30:35;;;;;;;17.92;2.47;;;10.90;99.90;;;;;;5051148;28;20067;-62
2022/11/10 06:33:21;;;;;;;14.57;2.20;;;10.90;99.90;;;;;;5047552;28;20060;-61
2022/11/10 06:36:06;;;;;;;;;;;11.00;99.90;;;;;;5044603;28;20198;-63
2022/11/10 06:38:51;;;;;;;12.32;2.40;;;11.00;99.90;;;;;;5052433;28;20276;-61
2022/11/10 06:41:36;;;;;;;15.48;2.40;;;11.10;99.90;;;;;;5048779;28;20514;-60
2022/11/10 06:44:21;;;;;;;16.33;3.35;;;11.10;99.90;;;;;;5052766;28;20075;-60
2022/11/10 06:47:06;;;;;;;13.13;2.65;;;11.10;99.90;;;;;;5049119;28;20056;-61
2022/11/10 06:49:51;;;;;;;15.98;2.20;;;11.10;99.90;;;;;;5038855;28;20044;-63
2022/11/10 06:52:37;;;;;;;12.35;2.00;;;11.10;99.90;;;;;;5049725;28;20132;-61
2022/11/10 06:55:22;;;;;;;17.03;2.73;;;11.00;99.90;;;;;;5034088;28;20052;-61
2022/11/10 06:58:07;;;;;;;15.82;2.42;;;11.00;99.90;;;;;;5044440;28;20266;-61
2022/11/10 07:00:52;;;;;;;13.75;1.95;;;11.10;99.90;;;;;;5032936;28;20534;-62
2022/11/10 07:03:38;;;;;;;16.87;2.53;;;11.10;99.90;;;;;;5038068;28;20511;-63
2022/11/10 07:06:44;;;;;;;12.90;2.40;;;11.10;99.90;;;;;;5042175;28;20194;-63
2022/11/10 07:09:29;;;;;;;19.25;2.42;;;11.20;99.90;;;;;;5047252;28;20052;-62
2022/11/10 07:12:14;;;;;;;16.60;2.63;;;11.30;99.90;;;;;;5048675;28;20055;-63
2022/11/10 07:14:59;;;;;;;18.50;2.88;;;11.30;99.90;;;;;;5052565;28;20099;-61
2022/11/10 07:17:44;;;;;;;14.83;2.37;;;11.30;99.90;;;;;;5044059;28;20052;-60
2022/11/10 07:20:29;;;;;;;19.73;3.15;;;11.40;99.90;;;;;;5050295;28;20132;-60
2022/11/10 07:23:14;;;;;;;14.63;2.53;;;11.40;99.90;;;;;;5055828;28;20071;-62
2022/11/10 07:26:00;;;;;;;15.30;3.30;;;11.50;99.90;;;;;;5055526;28;20557;-62
2022/11/10 07:28:45;;;;;;;14.95;2.80;;;11.50;99.90;;;;;;5056170;28;20048;-60
2022/11/10 07:31:31;;;;;;;17.77;2.65;;;11.60;99.90;;;;;;5038378;28;20572;-62
2022/11/10 07:34:16;;;;;;;15.40;3.80;;;11.60;99.90;;;;;;5048940;28;20053;-62
2022/11/10 07:37:01;;;;;;;19.55;3.22;;;11.70;99.90;;;;;;5039951;28;20044;-61
2022/11/10 07:39:46;;;;;;;16.40;2.20;;;11.70;99.90;;;;;;5047193;28;20074;-61
2022/11/10 07:42:32;;;;;;;17.83;2.80;;;11.70;99.90;;;;;;5051935;28;20060;-61
2022/11/10 07:45:17;;;;;;;15.77;2.55;;;11.80;99.90;;;;;;5038130;28;20531;-61
2022/11/10 07:48:02;;;;;;;16.60;2.37;;;11.80;99.90;;;;;;5048981;28;20395;-61
2022/11/10 07:50:47;;;;;;;12.13;2.33;;;11.90;99.90;;;;;;5037515;28;20144;-61
2022/11/10 07:53:32;;;;;;;15.48;2.45;;;11.90;99.90;;;;;;5045920;28;20114;-60
2022/11/10 07:56:17;;;;;;;11.13;2.17;;;11.90;99.90;;;;;;5036763;28;20068;-62
2022/11/10 07:59:02;;;;;;;17.17;2.60;;;12.00;99.90;;;;;;5044938;28;20052;-61
2022/11/10 08:01:47;;;;;;;16.30;2.67;;;12.00;99.90;;;;;;5050829;28;20124;-62
2022/11/10 08:04:32;;;;;;;21.25;2.58;;;12.10;99.90;;;;;;5041805;28;20060;-60
2022/11/10 08:07:18;;;;;;;14.68;2.67;;;12.10;99.90;;;;;;5042072;28;20057;-62
2022/11/10 08:10:03;;;;;;;14.80;2.50;;;12.10;99.90;;;;;;5046835;28;20400;-63
2022/11/10 08:12:49;;;;;;;28.08;4.15;;;12.20;99.90;;;;;;5055818;28;20052;-62
2022/11/10 08:15:34;;;;;;;18.95;2.70;;;12.30;99.90;;;;;;5055222;28;20047;-61
2022/11/10 08:18:19;;;;;;;15.98;2.60;;;12.30;99.90;;;;;;5055696;28;20075;-63
2022/11/10 08:21:05;;;;;;;19.77;2.58;;;12.40;99.90;;;;;;5055142;28;20055;-62
2022/11/10 08:23:50;;;;;;;;;;;12.40;99.90;;;;;;5056326;28;20396;-63
2022/11/10 08:26:35;;;;;;;22.27;4.55;;;12.40;99.90;;;;;;5055082;28;19927;-62
2022/11/10 08:29:21;;;;;;;19.70;3.22;;;12.50;99.90;;;;;;5055203;28;20064;-62
2022/11/10 08:32:06;;;;;;;1010.67;114.90;;;12.50;99.90;;;;;;5055362;28;20396;-62
2022/11/10 08:34:51;;;;;;;134.90;20.70;;;12.50;99.90;;;;;;5054822;28;20052;-62
2022/11/10 08:37:37;;;;;;;968.80;107.85;;;12.40;99.90;;;;;;5054893;28;20048;-62
2022/11/10 08:40:23;;;;;;;1999.90;520.88;;;12.40;99.90;;;;;;5055100;28;20658;-63
2022/11/10 08:43:08;;;;;;;800.13;90.95;;;12.50;99.90;;;;;;5055402;28;20110;-63
2022/11/10 08:45:54;;;;;;;54.70;9.30;;;12.50;99.90;;;;;;5054906;28;20542;-63
2022/11/10 08:48:40;;;;;;;28.48;4.78;;;12.50;99.90;;;;;;5054871;28;20052;-62
2022/11/10 08:51:25;;;;;;;829.97;86.25;;;12.50;99.90;;;;;;5055040;28;20060;-63
2022/11/10 08:54:10;;;;;;;84.67;12.17;;;12.50;99.90;;;;;;5054505;28;20052;-62
2022/11/10 08:56:55;;;;;;;21.27;3.67;;;12.60;99.90;;;;;;5054499;28;20261;-61
2022/11/10 08:59:40;;;;;;;19.03;2.33;;;12.60;99.90;;;;;;5054341;28;20068;-64
2022/11/10 09:02:25;;;;;;;58.17;6.67;;;12.50;99.90;;;;;;5074013;28;20055;-63
2022/11/10 09:05:10;;;;;;;17.50;2.92;;;12.50;99.90;;;;;;5055240;28;20098;-63
2022/11/10 09:07:55;;;;;;;29.48;3.47;;;12.50;99.90;;;;;;5046661;28;20071;-63
2022/11/10 09:10:41;;;;;;;91.72;9.65;;;12.60;99.90;;;;;;5036178;28;20487;-61
2022/11/10 09:13:27;;;;;;;54.28;5.90;;;12.60;99.90;;;;;;5054394;28;20130;-65
2022/11/10 09:16:14;;;;;;;16.67;2.53;;;12.70;99.90;;;;;;5054328;28;20106;-63
2022/11/10 09:18:59;;;;;;;14.70;2.93;;;12.70;99.90;;;;;;5053376;28;20056;-64
2022/11/10 09:21:44;;;;;;;96.97;7.90;;;12.80;99.90;;;;;;5054332;28;20760;-63
2022/11/10 09:24:29;;;;;;;19.20;3.10;;;12.80;99.90;;;;;;5054398;28;20273;-62
2022/11/10 09:27:16;;;;;;;24.95;2.97;;;12.90;99.90;;;;;;5054459;28;20095;-63
2022/11/10 09:30:01;;;;;;;15.00;2.38;;;12.90;99.90;;;;;;5054193;28;20052;-63
2022/11/10 09:32:46;;;;;;;14.27;2.97;;;13.00;99.90;;;;;;5054211;28;20068;-62
2022/11/10 09:35:31;;;;;;;34.38;3.63;;;13.10;99.90;;;;;;5053879;28;20155;-62
2022/11/10 09:38:17;;;;;;;16.02;3.65;;;13.10;99.90;;;;;;5053549;28;20569;-61
2022/11/10 09:41:03;;;;;;;24.70;3.35;;;13.10;99.90;;;;;;5053365;28;20051;-61
2022/11/10 09:43:48;;;;;;;17.60;2.80;;;13.20;99.90;;;;;;5053849;28;20134;-62
2022/11/10 09:46:33;;;;;;;72.45;7.85;;;13.20;99.90;;;;;;5053849;28;20076;-61
2022/11/10 09:49:18;;;;;;;20.67;3.77;;;13.20;99.90;;;;;;5052727;28;20051;-61
2022/11/10 09:52:03;;;;;;;20.15;3.22;;;13.30;99.90;;;;;;5054053;28;20609;-60
2022/11/10 09:54:49;;;;;;;79.22;9.75;;;13.30;99.90;;;;;;5054030;28;20098;-61
2022/11/10 09:57:34;;;;;;;97.68;11.00;;;13.40;99.90;;;;;;5053546;28;20047;-63
2022/11/10 10:00:19;;;;;;;23.02;3.00;;;13.40;99.90;;;;;;5053591;28;20511;-61
2022/11/10 10:03:05;;;;;;;22.55;4.57;;;13.40;99.90;;;;;;5053553;28;20052;-60
2022/11/10 10:05:50;;;;;;;13.18;3.20;;;13.40;99.90;;;;;;5053865;28;20107;-60
2022/11/10 10:08:35;;;;;;;15.50;2.40;;;13.40;99.90;;;;;;5053805;28;20067;-62
2022/11/10 10:11:20;;;;;;;41.77;4.47;;;13.50;99.90;;;;;;5053578;28;20293;-62
2022/11/10 10:14:05;;;;;;;16.38;2.55;;;13.60;99.90;;;;;;5054184;28;20351;-64
2022/11/10 10:16:50;;;;;;;23.87;3.23;;;13.70;99.90;;;;;;5053283;28;20055;-62
2022/11/10 10:19:35;;;;;;;16.00;2.30;;;13.70;99.90;;;;;;5053217;28;20578;-64
2022/11/10 10:22:22;;;;;;;13.75;2.70;;;13.70;99.90;;;;;;5052912;28;20052;-65
2022/11/10 10:25:07;;;;;;;19.15;3.30;;;13.80;99.90;;;;;;5053595;28;20060;-62
2022/11/10 10:27:53;;;;;;;14.00;2.60;;;13.80;99.90;;;;;;5052761;28;20056;-62
2022/11/10 10:30:37;;;;;;;47.50;3.97;;;13.90;99.90;;;;;;5053800;28;20111;-61
2022/11/10 10:33:23;;;;;;;64.78;6.43;;;13.90;99.90;;;;;;5033241;28;20061;-62
2022/11/10 10:36:08;;;;;;;15.80;2.70;;;13.90;99.90;;;;;;5034213;28;20044;-61
2022/11/10 10:38:53;;;;;;;;;;;14.00;99.90;;;;;;5053582;28;20071;-62
2022/11/10 10:41:38;;;;;;;23.45;3.50;;;14.00;99.90;;;;;;5053510;28;19927;-61
2022/11/10 10:44:24;;;;;;;16.20;2.95;;;14.10;99.90;;;;;;5050069;28;20059;-62
2022/11/10 10:47:09;;;;;;;9.93;2.13;;;14.10;99.90;;;;;;5051089;28;20408;-61
2022/11/10 10:49:55;;;;;;;12.70;2.20;;;14.10;99.90;;;;;;5052306;28;20094;-62
2022/11/10 10:52:40;;;;;;;16.92;2.03;;;14.20;99.90;;;;;;5056606;28;20051;-60
2022/11/10 10:55:25;;;;;;;27.98;3.72;;;14.30;99.90;;;;;;5036087;28;20043;-61
2022/11/10 10:58:10;;;;;;;10.35;2.00;;;14.30;99.90;;;;;;5055608;28;21388;-63
2022/11/10 11:00:55;;;;;;;13.93;2.45;;;14.30;99.90;;;;;;5056233;28;20210;-63
2022/11/10 11:03:41;;;;;;;16.52;2.38;;;14.30;99.90;;;;;;5055712;28;20542;-62
2022/11/10 11:06:26;;;;;;;15.57;2.33;;;14.30;99.90;;;;;;5056076;28;20067;-62
2022/11/10 11:09:11;;;;;;;;;;;14.30;99.90;;;;;;5055656;28;20087;-61
2022/11/10 11:11:57;;;;;;;14.05;2.22;;;14.30;99.90;;;;;;5055628;28;19944;-63
2022/11/10 11:14:42;;;;;;;14.70;2.38;;;14.40;99.90;;;;;;5043101;28;20056;-61
2022/11/10 11:17:30;;;;;;;12.70;2.53;;;14.40;99.90;;;;;;5055937;28;20055;-63
2022/11/10 11:20:16;;;;;;;130.15;8.25;;;14.40;99.90;;;;;;5054894;28;20051;-64
2022/11/10 11:23:01;;;;;;;164.82;9.20;;;14.50;99.90;;;;;;5056078;28;20187;-63
2022/11/10 11:25:46;;;;;;;418.27;40.40;;;14.50;99.90;;;;;;5054595;28;20056;-61
2022/11/10 11:28:32;;;;;;;46.88;5.05;;;14.60;99.90;;;;;;5055471;28;20056;-61
2022/11/10 11:31:17;;;;;;;101.70;5.88;;;14.70;99.90;;;;;;5054853;28;20047;-63
2022/11/10 11:34:02;;;;;;;16.08;3.67;;;14.70;99.90;;;;;;5055650;28;20497;-63
2022/11/10 11:36:48;;;;;;;24.73;3.88;;;14.80;99.90;;;;;;5055335;28;20052;-60
2022/11/10 11:39:33;;;;;;;80.40;7.45;;;14.80;99.90;;;;;;5044327;28;20052;-63
2022/11/10 11:42:18;;;;;;;362.95;33.05;;;14.90;99.90;;;;;;5055417;28;20071;-62
2022/11/10 11:45:04;;;;;;;16.08;3.20;;;15.00;99.90;;;;;;5053576;28;20060;-62
2022/11/10 11:47:49;;;;;;;14.60;2.70;;;15.00;99.90;;;;;;5055245;28;20471;-63
2022/11/10 11:50:34;;;;;;;17.50;2.70;;;15.00;99.90;;;;;;5054055;28;20075;-63
2022/11/10 11:53:19;;;;;;;24.17;3.90;;;15.10;99.90;;;;;;5055562;28;20131;-64
2022/11/10 11:56:05;;;;;;;17.00;2.92;;;15.00;99.90;;;;;;5035374;28;20049;-63
2022/11/10 11:58:50;;;;;;;11.23;2.63;;;15.00;99.90;;;;;;5035092;28;20103;-62
2022/11/10 12:01:35;;;;;;;23.60;3.05;;;15.00;99.90;;;;;;5034909;28;20054;-63
2022/11/10 12:04:20;;;;;;;15.32;2.70;;;15.00;99.90;;;;;;5037607;28;20175;-61
2022/11/10 12:07:06;;;;;;;;;;;15.10;99.90;;;;;;5055363;28;20052;-63
2022/11/10 12:09:51;;;;;;;24.13;3.60;;;15.10;99.90;;;;;;5054274;28;20014;-62
2022/11/10 12:12:36;;;;;;;20.35;3.85;;;15.10;99.90;;;;;;5055567;28;20048;-63
2022/11/10 12:15:21;;;;;;;18.85;3.05;;;15.10;99.90;;;;;;5054317;28;20052;-66
2022/11/10 12:18:07;;;;;;;;;;;15.10;99.90;;;;;;5054933;28;20143;-62
2022/11/10 12:20:52;;;;;;;14.25;3.28;;;15.00;99.90;;;;;;5049937;28;20023;-63
2022/11/10 12:23:38;;;;;;;;;;;15.00;99.90;;;;;;5055278;28;20048;-62
2022/11/10 12:26:23;;;;;;;16.67;3.03;;;15.00;99.90;;;;;;5053695;28;19991;-62
2022/11/10 12:29:08;;;;;;;15.63;2.72;;;15.00;99.90;;;;;;5054596;28;20051;-62
2022/11/10 12:31:53;;;;;;;10.25;2.50;;;15.10;99.90;;;;;;5054274;28;20098;-63
2022/11/10 12:34:41;;;;;;;19.13;3.17;;;15.10;99.90;;;;;;5054633;28;20675;-63
2022/11/10 12:37:26;;;;;;;20.33;3.35;;;15.10;99.90;;;;;;5053950;28;20178;-61
2022/11/10 12:40:12;;;;;;;;;;;15.10;99.90;;;;;;5054261;28;20172;-63
2022/11/10 12:42:57;;;;;;;14.20;2.95;;;15.20;99.90;;;;;;5054539;28;20026;-61
2022/11/10 12:45:42;;;;;;;12.10;2.53;;;15.20;99.90;;;;;;5054183;28;20110;-63
2022/11/10 12:48:27;;;;;;;15.73;2.90;;;15.20;99.90;;;;;;5053780;28;20075;-63
2022/11/10 12:51:12;;;;;;;;;;;15.20;99.90;;;;;;5053829;28;20052;-62
2022/11/10 12:53:57;;;;;;;12.00;2.55;;;15.20;99.90;;;;;;5054624;28;20292;-61
2022/11/10 12:56:43;;;;;;;10.55;3.30;;;15.30;99.90;;;;;;5049251;28;20515;-62
2022/11/10 12:59:29;;;;;;;;;;;15.30;99.90;;;;;;5054965;28;20060;-62
2022/11/10 13:02:14;;;;;;;13.90;2.33;;;15.20;99.90;;;;;;5053434;28;19994;-62
2022/11/10 13:04:59;;;;;;;13.27;2.70;;;15.20;99.90;;;;;;5054292;28;20056;-62
2022/11/10 13:07:45;;;;;;;11.85;3.05;;;15.20;99.90;;;;;;5054274;28;20095;-61
2022/11/10 13:10:30;;;;;;;15.48;2.92;;;15.20;99.90;;;;;;5052651;28;20112;-63
2022/11/10 13:13:15;;;;;;;14.77;2.78;;;15.20;99.90;;;;;;5049792;28;20055;-62
2022/11/10 13:16:00;;;;;;;12.63;2.50;;;15.20;99.90;;;;;;5053605;28;20103;-61
2022/11/10 13:18:46;;;;;;;12.65;2.22;;;15.20;99.90;;;;;;5043581;28;20135;-64
2022/11/10 13:21:31;;;;;;;15.23;3.17;;;15.20;99.90;;;;;;5047068;28;20399;-62
2022/11/10 13:24:16;;;;;;;12.95;2.50;;;15.20;99.90;;;;;;5053762;28;20075;-61
2022/11/10 13:27:01;;;;;;;14.30;2.83;;;15.20;99.90;;;;;;5053450;28;20517;-63
2022/11/10 13:29:47;;;;;;;14.57;2.72;;;15.20;99.90;;;;;;5052387;28;20526;-62
2022/11/10 13:32:32;;;;;;;24.63;3.50;;;15.30;99.90;;;;;;5053818;28;20102;-63
2022/11/10 13:35:17;;;;;;;25.30;3.05;;;15.20;99.90;;;;;;5050895;28;20048;-63
2022/11/10 13:38:02;;;;;;;17.30;2.63;;;15.20;99.90;;;;;;5053424;28;20047;-62
2022/11/10 13:40:47;;;;;;;187.52;13.48;;;15.30;99.90;;;;;;5053076;28;20055;-64
2022/11/10 13:43:32;;;;;;;50.85;6.78;;;15.30;99.90;;;;;;5052846;28;20059;-60
2022/11/10 13:46:17;;;;;;;13.50;2.83;;;15.20;99.90;;;;;;5053345;28;20147;-62
2022/11/10 13:49:02;;;;;;;42.70;5.20;;;15.30;99.90;;;;;;5052830;28;20146;-65
2022/11/10 13:51:48;;;;;;;;;;;15.20;99.90;;;;;;5053688;28;20087;-64
2022/11/10 13:54:33;;;;;;;19.60;3.75;;;15.20;99.90;;;;;;5053917;28;19943;-60
2022/11/10 13:57:18;;;;;;;13.77;2.60;;;15.20;99.90;;;;;;5053265;28;20047;-62
2022/11/10 14:00:03;;;;;;;15.35;2.63;;;15.20;99.90;;;;;;5052304;28;20543;-63
2022/11/10 14:02:48;;;;;;;20.85;4.13;;;15.20;99.90;;;;;;5053276;28;20123;-62
2022/11/10 14:05:37;;;;;;;11.95;2.75;;;15.20;99.90;;;;;;5052780;28;20056;-63
2022/11/10 14:08:22;;;;;;;20.90;3.30;;;15.20;99.90;;;;;;5052920;28;20106;-62
2022/11/10 14:11:08;;;;;;;18.52;3.22;;;15.10;99.90;;;;;;5052972;28;20068;-62
2022/11/10 14:13:53;;;;;;;13.63;2.65;;;15.20;99.90;;;;;;5053070;28;20119;-62
2022/11/10 14:16:38;;;;;;;20.98;3.20;;;15.20;99.90;;;;;;5052506;28;20419;-61
2022/11/10 14:19:23;;;;;;;32.20;4.80;;;15.10;99.90;;;;;;5052961;28;20056;-61
2022/11/10 14:22:08;;;;;;;30.83;3.67;;;15.10;99.90;;;;;;5051891;28;20059;-64
2022/11/10 14:24:53;;;;;;;23.30;3.47;;;15.20;99.90;;;;;;5053422;28;20055;-61